createdAt,value
2019-05-16T00:00:36.971Z,2.30
2019-05-16T00:03:09.762Z,2.20
2019-05-16T00:05:51.510Z,2.03
2019-05-16T00:08:18.746Z,2.50
2019-05-16T00:10:51.543Z,2.43
2019-05-16T00:13:28.231Z,2.50
2019-05-16T00:16:00.987Z,2.50
2019-05-16T00:18:33.687Z,2.20
2019-05-16T00:21:08.564Z,2.57
2019-05-16T00:23:41.163Z,3.10
2019-05-16T00:26:13.878Z,2.40
2019-05-16T00:28:48.463Z,2.20
2019-05-16T00:31:21.302Z,1.97
2019-05-16T00:33:57.788Z,2.00
2019-05-16T00:36:31.701Z,2.60
2019-05-16T00:39:05.033Z,2.50
2019-05-16T00:41:38.546Z,2.30
2019-05-16T00:44:11.456Z,2.50
2019-05-16T00:46:44.222Z,2.17
2019-05-16T00:49:18.670Z,2.43
2019-05-16T00:51:51.459Z,2.33
2019-05-16T00:54:24.232Z,2.53
2019-05-16T00:56:57.918Z,2.50
2019-05-16T00:59:31.504Z,2.83
2019-05-16T01:02:05.952Z,2.27
2019-05-16T01:04:38.564Z,2.80
2019-05-16T01:07:11.238Z,2.50
2019-05-16T01:09:45.663Z,2.60
2019-05-16T01:12:19.324Z,2.57
2019-05-16T01:14:51.982Z,2.60
2019-05-16T01:17:28.169Z,2.70
2019-05-16T01:20:00.317Z,2.60
2019-05-16T01:22:34.128Z,2.60
2019-05-16T01:25:09.509Z,2.40
2019-05-16T01:27:41.427Z,2.60
2019-05-16T01:30:14.212Z,2.77
2019-05-16T01:32:48.956Z,2.83
2019-05-16T01:35:21.422Z,2.60
2019-05-16T01:37:54.169Z,2.90
2019-05-16T01:40:28.156Z,2.80
2019-05-16T01:43:00.873Z,2.87
2019-05-16T01:45:33.629Z,2.37
2019-05-16T01:48:08.059Z,2.70
2019-05-16T01:50:41.008Z,2.60
2019-05-16T01:53:13.580Z,2.80
2019-05-16T01:55:48.603Z,2.43
2019-05-16T01:58:20.740Z,2.80
2019-05-16T02:01:11.158Z,2.60
2019-05-16T02:03:29.057Z,2.83
2019-05-16T02:06:01.652Z,2.87
2019-05-16T02:08:34.331Z,2.80
2019-05-16T02:11:08.572Z,3.10
2019-05-16T02:13:44.918Z,2.77
2019-05-16T02:16:18.690Z,2.80
2019-05-16T02:18:51.773Z,2.70
2019-05-16T02:21:24.457Z,2.30
2019-05-16T02:23:58.585Z,2.70
2019-05-16T02:26:32.714Z,2.90
2019-05-16T02:29:06.128Z,3.00
2019-05-16T02:31:42.214Z,2.80
2019-05-16T02:34:14.445Z,2.87
2019-05-16T02:36:47.079Z,2.60
2019-05-16T02:39:21.099Z,3.83
2019-05-16T02:41:54.075Z,2.60
2019-05-16T02:44:26.671Z,2.50
2019-05-16T02:47:01.522Z,2.70
2019-05-16T02:49:34.207Z,3.00
2019-05-16T02:52:07.130Z,2.90
2019-05-16T02:54:41.170Z,2.47
2019-05-16T02:57:14.235Z,2.60
2019-05-16T02:59:46.852Z,2.63
2019-05-16T03:02:20.605Z,2.73
2019-05-16T03:04:53.384Z,2.70
2019-05-16T03:07:37.743Z,2.77
2019-05-16T03:10:02.381Z,2.70
2019-05-16T03:12:37.383Z,2.80
2019-05-16T03:15:10.976Z,3.10
2019-05-16T03:17:43.951Z,2.93
2019-05-16T03:20:16.631Z,3.10
2019-05-16T03:22:51.961Z,2.97
2019-05-16T03:25:24.906Z,3.00
2019-05-16T03:27:57.589Z,2.80
2019-05-16T03:30:35.269Z,2.90
2019-05-16T03:33:05.911Z,2.77
2019-05-16T03:35:44.022Z,2.77
2019-05-16T03:38:13.148Z,2.70
2019-05-16T03:40:45.826Z,2.87
2019-05-16T03:43:21.553Z,2.83
2019-05-16T03:45:53.176Z,2.83
2019-05-16T03:48:25.950Z,2.97
2019-05-16T03:51:00.803Z,2.50
2019-05-16T03:53:33.177Z,2.47
2019-05-16T03:56:05.764Z,2.63
2019-05-16T03:58:41.172Z,2.50
2019-05-16T04:01:12.910Z,2.77
2019-05-16T04:03:45.629Z,2.67
2019-05-16T04:06:18.304Z,2.50
2019-05-16T04:08:51.236Z,2.60
2019-05-16T04:11:24.217Z,2.70
2019-05-16T04:13:57.125Z,2.60
2019-05-16T04:16:31.265Z,2.30
2019-05-16T04:19:04.369Z,2.57
2019-05-16T04:21:37.110Z,2.40
2019-05-16T04:24:12.156Z,2.50
2019-05-16T04:26:44.317Z,2.50
2019-05-16T04:29:17.010Z,2.50
2019-05-16T04:31:50.902Z,2.50
2019-05-16T04:34:24.980Z,2.63
2019-05-16T04:37:00.884Z,2.60
2019-05-16T04:39:32.305Z,2.50
2019-05-16T04:42:05.102Z,2.17
2019-05-16T04:44:41.355Z,2.63
2019-05-16T04:47:12.336Z,2.30
2019-05-16T04:49:45.001Z,2.83
2019-05-16T04:52:17.616Z,2.50
2019-05-16T04:54:51.172Z,2.73
2019-05-16T04:57:24.112Z,2.70
2019-05-16T04:59:56.843Z,2.20
2019-05-16T05:02:30.981Z,2.90
2019-05-16T05:05:04.220Z,2.43
2019-05-16T05:07:36.964Z,2.70
2019-05-16T05:10:11.241Z,2.40
2019-05-16T05:12:44.391Z,2.60
2019-05-16T05:15:17.196Z,2.90
2019-05-16T05:17:50.338Z,2.40
2019-05-16T05:20:23.093Z,2.70
2019-05-16T05:22:55.700Z,3.10
2019-05-16T05:25:30.734Z,2.43
2019-05-16T05:28:03.057Z,2.70
2019-05-16T05:30:35.770Z,2.80
2019-05-16T05:33:10.143Z,2.93
2019-05-16T05:35:43.016Z,2.80
2019-05-16T05:38:15.829Z,2.70
2019-05-16T05:40:50.874Z,2.73
2019-05-16T05:43:23.075Z,2.83
2019-05-16T05:45:55.772Z,2.57
2019-05-16T05:48:30.838Z,2.83
2019-05-16T05:51:02.894Z,3.00
2019-05-16T05:53:35.457Z,2.80
2019-05-16T05:56:11.496Z,3.00
2019-05-16T05:58:44.782Z,2.70
2019-05-16T06:01:20.256Z,3.30
2019-05-16T06:03:52.916Z,2.60
2019-05-16T06:06:25.619Z,2.70
2019-05-16T06:09:00.542Z,2.33
2019-05-16T06:11:33.202Z,4.07
2019-05-16T06:14:05.877Z,3.47
2019-05-16T06:16:40.206Z,2.20
2019-05-16T06:19:13.111Z,2.63
2019-05-16T06:21:45.875Z,2.80
2019-05-16T06:24:20.332Z,3.43
2019-05-16T06:26:53.178Z,2.73
2019-05-16T06:29:25.979Z,2.67
2019-05-16T06:32:00.289Z,2.62
2019-05-16T06:34:33.306Z,3.10
2019-05-16T06:37:06.013Z,3.33
2019-05-16T06:39:42.691Z,2.90
2019-05-16T06:42:14.506Z,2.62
2019-05-16T06:44:47.283Z,2.87
2019-05-16T06:47:22.979Z,3.05
2019-05-16T06:49:54.771Z,2.80
2019-05-16T06:52:30.148Z,3.05
2019-05-16T06:55:03.908Z,2.70
2019-05-16T06:57:36.694Z,2.90
2019-05-16T07:00:10.933Z,2.70
2019-05-16T07:02:43.940Z,2.50
2019-05-16T07:05:16.534Z,2.92
2019-05-16T07:07:51.103Z,2.30
2019-05-16T07:10:23.831Z,2.83
2019-05-16T07:12:56.459Z,2.45
2019-05-16T07:15:29.814Z,2.70
2019-05-16T07:18:02.654Z,2.15
2019-05-16T07:20:35.362Z,2.40
2019-05-16T07:23:10.089Z,2.30
2019-05-16T07:25:43.871Z,2.20
2019-05-16T07:28:16.643Z,2.12
2019-05-16T07:30:50.649Z,2.00
2019-05-16T07:33:23.436Z,2.10
2019-05-16T07:35:56.201Z,2.00
2019-05-16T07:38:30.942Z,2.45
2019-05-16T07:41:03.778Z,2.37
2019-05-16T07:43:36.523Z,2.27
2019-05-16T07:46:11.930Z,2.45
2019-05-16T07:48:46.335Z,3.20
2019-05-16T07:51:20.530Z,3.95
2019-05-16T07:53:53.364Z,2.70
2019-05-16T07:56:27.049Z,3.10
2019-05-16T07:59:00.901Z,2.58
2019-05-16T08:01:34.315Z,3.62
2019-05-16T08:04:07.049Z,3.87
2019-05-16T08:06:40.786Z,4.65
2019-05-16T08:09:14.502Z,2.92
2019-05-16T08:11:50.024Z,5.37
2019-05-16T08:14:21.889Z,2.42
2019-05-16T08:16:54.658Z,4.28
2019-05-16T08:19:30.613Z,2.92
2019-05-16T08:22:03.065Z,4.47
2019-05-16T08:27:12.178Z,4.65
2019-05-16T08:29:46.455Z,2.55
2019-05-16T08:32:22.938Z,2.50
2019-05-16T08:34:55.354Z,2.47
2019-05-16T08:37:38.575Z,2.85
2019-05-16T08:40:04.309Z,2.80
2019-05-16T08:42:36.998Z,21.62
2019-05-16T08:45:12.769Z,8.85
2019-05-16T08:47:45.259Z,12.80
2019-05-16T08:50:21.661Z,3.10
2019-05-16T08:52:54.238Z,2.35
2019-05-16T08:55:31.314Z,2.33
2019-05-16T08:58:03.428Z,2.45
2019-05-16T09:00:37.069Z,2.17
2019-05-16T09:03:12.251Z,2.80
2019-05-16T09:05:44.417Z,2.20
2019-05-16T09:08:17.154Z,2.50
2019-05-16T09:10:40.382Z,4.55
2019-05-16T09:11:00.663Z,2.05
2019-05-16T09:13:27.945Z,2.45
2019-05-16T09:16:00.196Z,1.90
2019-05-16T09:18:40.553Z,2.30
2019-05-16T09:21:07.718Z,2.58
2019-05-16T09:23:41.616Z,2.58
2019-05-16T09:26:16.943Z,2.20
2019-05-16T09:28:48.949Z,2.00
2019-05-16T09:31:21.680Z,2.17
2019-05-16T09:33:56.786Z,2.10
2019-05-16T09:36:28.963Z,2.65
2019-05-16T09:39:01.827Z,2.55
2019-05-16T09:41:49.789Z,2.55
2019-05-16T09:44:11.330Z,2.50
2019-05-16T09:46:44.049Z,2.20
2019-05-16T09:49:24.200Z,2.50
2019-05-16T09:51:51.263Z,2.90
2019-05-16T09:54:24.011Z,3.15
2019-05-16T09:56:57.262Z,2.67
2019-05-16T09:59:31.404Z,2.40
2019-05-16T10:02:07.373Z,2.70
2019-05-16T10:04:41.387Z,2.58
2019-05-16T10:07:14.224Z,2.80
2019-05-16T10:09:50.329Z,2.70
2019-05-16T10:12:21.666Z,2.27
2019-05-16T10:14:54.329Z,2.37
2019-05-16T10:17:27.351Z,2.65
2019-05-16T10:20:03.123Z,2.80
2019-05-16T10:22:37.372Z,2.33
2019-05-16T10:25:12.515Z,2.45
2019-05-16T10:27:47.366Z,2.55
2019-05-16T10:30:21.781Z,2.50
2019-05-16T10:32:54.566Z,2.55
2019-05-16T10:35:30.030Z,2.67
2019-05-16T10:38:02.177Z,2.67
2019-05-16T10:40:36.919Z,2.75
2019-05-16T10:43:09.845Z,2.60
2019-05-16T10:45:42.621Z,3.05
2019-05-16T10:48:17.553Z,3.08
2019-05-16T10:50:50.485Z,3.20
2019-05-16T10:53:50.281Z,3.08
2019-05-16T10:55:58.486Z,4.30
2019-05-16T10:58:36.972Z,3.60
2019-05-16T11:01:22.442Z,3.80
2019-05-16T11:03:41.657Z,3.35
2019-05-16T11:06:25.165Z,3.67
2019-05-16T11:08:50.129Z,3.22
2019-05-16T11:11:22.864Z,3.40
2019-05-16T11:13:55.529Z,3.00
2019-05-16T11:16:29.452Z,3.62
2019-05-16T11:19:14.385Z,3.80
2019-05-16T11:21:37.657Z,5.20
2019-05-16T11:24:12.735Z,5.10
2019-05-16T11:26:47.354Z,3.70
2019-05-16T11:29:20.252Z,3.30
2019-05-16T11:31:53.081Z,3.50
2019-05-16T11:34:26.624Z,3.80
2019-05-16T11:37:00.615Z,3.08
2019-05-16T11:39:33.344Z,4.30
2019-05-16T11:42:08.150Z,3.00
2019-05-16T11:44:40.701Z,3.55
2019-05-16T11:47:13.380Z,3.50
2019-05-16T11:49:47.573Z,3.10
2019-05-16T11:52:20.505Z,3.27
2019-05-16T11:54:53.211Z,2.87
2019-05-16T11:57:26.017Z,3.25
2019-05-16T11:59:58.890Z,2.92
2019-05-16T12:02:31.870Z,3.30
2019-05-16T12:05:05.122Z,3.30
2019-05-16T12:07:44.416Z,3.72
2019-05-16T12:10:16.288Z,3.10
2019-05-16T12:12:50.175Z,3.25
2019-05-16T12:15:27.170Z,3.75
2019-05-16T12:18:04.645Z,3.52
2019-05-16T12:20:34.087Z,3.70
2019-05-16T12:23:07.918Z,3.98
2019-05-16T12:25:41.216Z,3.87
2019-05-16T12:28:13.995Z,3.50
2019-05-16T12:30:47.192Z,3.45
2019-05-16T12:33:20.104Z,3.65
2019-05-16T12:35:52.865Z,3.70
2019-05-16T12:38:27.680Z,3.70
2019-05-16T12:41:00.224Z,3.67
2019-05-16T12:43:46.088Z,3.08
2019-05-16T12:46:07.787Z,3.90
2019-05-16T12:48:40.709Z,4.10
2019-05-16T12:51:13.384Z,3.95
2019-05-16T12:53:48.045Z,3.80
2019-05-16T12:56:20.791Z,3.00
2019-05-16T12:58:54.580Z,3.87
2019-05-16T13:01:33.709Z,3.42
2019-05-16T13:04:03.769Z,3.65
2019-05-16T13:06:37.110Z,3.42
2019-05-16T13:09:10.068Z,3.02
2019-05-16T13:11:42.793Z,2.65
2019-05-16T13:14:17.030Z,3.33
2019-05-16T13:16:49.889Z,3.22
2019-05-16T13:19:22.852Z,2.98
2019-05-16T13:21:57.819Z,2.92
2019-05-16T13:24:30.723Z,3.00
2019-05-16T13:27:08.335Z,3.17
2019-05-16T13:29:40.047Z,2.50
2019-05-16T13:32:12.839Z,2.70
2019-05-16T13:34:46.948Z,3.10
2019-05-16T13:37:19.642Z,3.00
2019-05-16T13:39:52.523Z,4.20
2019-05-16T13:42:26.852Z,3.52
2019-05-16T13:44:59.679Z,3.80
2019-05-16T13:47:32.552Z,4.12
2019-05-16T13:50:11.490Z,4.10
2019-05-16T13:52:41.418Z,4.87
2019-05-16T13:55:16.745Z,5.00
2019-05-16T13:57:51.099Z,5.75
2019-05-16T14:00:23.767Z,5.30
2019-05-16T14:02:56.554Z,4.83
2019-05-16T14:05:30.744Z,4.40
2019-05-16T14:08:06.618Z,4.50
2019-05-16T14:10:38.514Z,4.53
2019-05-16T14:13:16.532Z,4.35
2019-05-16T14:15:49.593Z,4.00
2019-05-16T14:18:22.589Z,4.37
2019-05-16T14:20:57.297Z,4.20
2019-05-16T14:23:30.011Z,4.03
2019-05-16T14:26:02.718Z,4.00
2019-05-16T14:28:37.593Z,3.65
2019-05-16T14:31:11.994Z,4.20
2019-05-16T14:33:44.654Z,4.50
2019-05-16T14:36:17.488Z,3.98
2019-05-16T14:38:51.454Z,3.90
2019-05-16T14:41:24.468Z,4.58
2019-05-16T14:43:57.349Z,4.45
2019-05-16T14:46:30.054Z,3.65
2019-05-16T14:49:07.489Z,3.77
2019-05-16T14:51:39.275Z,3.33
2019-05-16T14:54:12.070Z,3.80
2019-05-16T14:56:47.381Z,3.58
2019-05-16T14:59:19.605Z,3.62
2019-05-16T15:01:52.328Z,3.42
2019-05-16T15:04:29.820Z,3.80
2019-05-16T15:06:59.790Z,4.00
2019-05-16T15:09:32.541Z,3.77
2019-05-16T15:12:06.870Z,3.83
2019-05-16T15:14:39.923Z,4.00
2019-05-16T15:17:12.698Z,4.03
2019-05-16T15:19:48.329Z,3.62
2019-05-16T15:22:21.004Z,3.52
2019-05-16T15:24:59.069Z,4.33
2019-05-16T15:27:30.353Z,3.30
2019-05-16T15:30:06.823Z,3.17
2019-05-16T15:32:38.907Z,3.08
2019-05-16T15:35:12.843Z,3.10
2019-05-16T15:37:48.421Z,3.50
2019-05-16T15:40:23.225Z,3.37
2019-05-16T15:42:58.871Z,3.30
2019-05-16T15:45:39.332Z,3.10
2019-05-16T15:48:08.990Z,3.75
2019-05-16T15:50:42.158Z,3.87
2019-05-16T15:53:17.499Z,8.93
2019-05-16T15:55:50.085Z,5.92
2019-05-16T15:58:22.875Z,8.18
2019-05-16T16:00:57.931Z,7.25
2019-05-16T16:03:30.313Z,6.50
2019-05-16T16:06:03.090Z,6.50
2019-05-16T16:08:37.657Z,6.97
2019-05-16T16:11:10.572Z,6.30
2019-05-16T16:13:43.406Z,7.62
2019-05-16T16:16:17.417Z,6.60
2019-05-16T16:18:51.526Z,6.58
2019-05-16T16:21:27.459Z,6.83
2019-05-16T16:24:00.552Z,6.08
2019-05-16T16:26:33.712Z,6.53
2019-05-16T16:29:07.294Z,6.95
2019-05-16T16:31:40.353Z,7.78
2019-05-16T16:34:12.962Z,9.40
2019-05-16T16:36:47.599Z,8.00
2019-05-16T16:39:21.439Z,7.65
2019-05-16T16:41:56.747Z,7.42
2019-05-16T16:44:28.880Z,6.85
2019-05-16T16:47:03.318Z,6.30
2019-05-16T16:49:39.483Z,6.10
2019-05-16T16:52:10.785Z,6.65
2019-05-16T16:54:47.439Z,6.40
2019-05-16T16:57:19.705Z,7.33
2019-05-16T16:59:53.511Z,6.90
2019-05-16T17:02:27.861Z,6.30
2019-05-16T17:05:02.435Z,6.25
2019-05-16T17:07:37.305Z,7.47
2019-05-16T17:10:10.919Z,6.90
2019-05-16T17:12:43.598Z,7.92
2019-05-16T17:15:17.086Z,7.30
2019-05-16T17:17:50.095Z,6.92
2019-05-16T17:20:23.371Z,6.22
2019-05-16T17:22:57.244Z,6.70
2019-05-16T17:25:30.860Z,7.75
2019-05-16T17:28:03.711Z,7.47
2019-05-16T17:30:37.029Z,7.35
2019-05-16T17:33:10.075Z,7.28
2019-05-16T17:35:42.994Z,7.47
2019-05-16T17:38:17.410Z,7.17
2019-05-16T17:40:50.296Z,7.80
2019-05-16T17:43:24.306Z,7.30
2019-05-16T17:45:57.672Z,7.30
2019-05-16T17:48:30.731Z,7.37
2019-05-16T17:51:03.723Z,7.42
2019-05-16T17:53:37.832Z,6.58
2019-05-16T17:56:10.617Z,7.37
2019-05-16T17:58:43.420Z,7.05
2019-05-16T18:01:17.068Z,7.80
2019-05-16T18:03:50.262Z,8.88
2019-05-16T18:06:23.404Z,7.30
2019-05-16T18:08:57.164Z,7.70
2019-05-16T18:11:30.386Z,6.25
2019-05-16T18:14:03.255Z,6.47
2019-05-16T18:16:52.343Z,6.22
2019-05-16T18:19:13.468Z,5.97
2019-05-16T18:21:46.483Z,6.55
2019-05-16T18:24:19.291Z,6.30
2019-05-16T18:26:53.043Z,7.05
2019-05-16T18:29:27.048Z,6.95
2019-05-16T18:31:59.806Z,7.25
2019-05-16T18:34:32.543Z,6.33
2019-05-16T18:37:06.955Z,7.08
2019-05-16T18:39:39.683Z,7.42
2019-05-16T18:42:16.609Z,7.40
2019-05-16T18:44:48.737Z,7.62
2019-05-16T18:47:23.317Z,7.05
2019-05-16T18:49:57.507Z,7.50
2019-05-16T18:52:30.398Z,7.33
2019-05-16T18:55:03.398Z,7.33
2019-05-16T18:57:37.743Z,7.83
2019-05-16T19:00:11.663Z,7.73
2019-05-16T19:02:44.442Z,8.13
2019-05-16T19:05:17.612Z,8.05
2019-05-16T19:07:51.531Z,8.60
2019-05-16T19:10:26.824Z,8.40
2019-05-16T19:12:59.832Z,7.97
2019-05-16T19:15:32.680Z,8.03
2019-05-16T19:18:06.974Z,7.45
2019-05-16T19:20:39.964Z,8.10
2019-05-16T19:23:14.387Z,7.60
2019-05-16T19:25:47.466Z,7.37
2019-05-16T19:28:21.688Z,7.53
2019-05-16T19:30:57.009Z,7.85
2019-05-16T19:33:29.156Z,7.47
2019-05-16T19:36:01.931Z,7.80
2019-05-16T19:38:37.496Z,7.97
2019-05-16T19:41:10.598Z,8.47
2019-05-16T19:43:43.366Z,8.38
2019-05-16T19:46:16.247Z,8.17
2019-05-16T19:48:48.995Z,8.13
2019-05-16T19:51:23.680Z,8.73
2019-05-16T19:53:56.694Z,9.00
2019-05-16T19:56:30.684Z,8.60
2019-05-16T19:59:03.528Z,9.93
2019-05-16T20:01:36.965Z,9.67
2019-05-16T20:04:09.737Z,10.40
2019-05-16T20:06:42.526Z,10.53
2019-05-16T20:09:16.619Z,10.40
2019-05-16T20:11:51.411Z,10.70
2019-05-16T20:14:24.173Z,12.10
2019-05-16T20:16:57.000Z,11.43
2019-05-16T20:19:30.877Z,13.10
2019-05-16T20:22:03.810Z,12.30
2019-05-16T20:24:36.577Z,12.93
2019-05-16T20:27:10.541Z,12.13
2019-05-16T20:29:43.642Z,12.70
2019-05-16T20:32:16.932Z,12.87
2019-05-16T20:34:50.979Z,12.50
2019-05-16T20:37:23.717Z,11.00
2019-05-16T20:39:58.433Z,11.33
2019-05-16T20:42:31.270Z,12.07
2019-05-16T20:45:04.419Z,11.10
2019-05-16T20:47:38.323Z,11.03
2019-05-16T20:50:12.858Z,11.27
2019-05-16T20:52:48.367Z,10.93
2019-05-16T20:55:20.503Z,10.93
2019-05-16T20:57:54.345Z,12.87
2019-05-16T21:00:28.215Z,11.33
2019-05-16T21:03:01.127Z,11.77
2019-05-16T21:05:33.824Z,12.30
2019-05-16T21:08:06.872Z,13.23
2019-05-16T21:10:41.498Z,13.80
2019-05-16T21:13:14.308Z,14.77
2019-05-16T21:15:48.864Z,13.27
2019-05-16T21:18:21.645Z,13.70
2019-05-16T21:20:54.233Z,15.17
2019-05-16T21:23:27.567Z,14.70
2019-05-16T21:26:03.015Z,15.63
2019-05-16T21:28:37.683Z,15.03
2019-05-16T21:31:11.502Z,16.27
2019-05-16T21:33:47.075Z,15.33
2019-05-16T21:36:19.998Z,15.40
2019-05-16T21:38:54.499Z,15.63
2019-05-16T21:41:27.196Z,16.23
2019-05-16T21:43:59.942Z,15.10
2019-05-16T21:46:36.533Z,16.27
2019-05-16T21:49:09.704Z,17.10
2019-05-16T21:51:42.329Z,16.73
2019-05-16T21:54:15.029Z,16.70
2019-05-16T21:56:47.778Z,17.93
2019-05-16T21:59:20.405Z,18.17
2019-05-16T22:01:53.213Z,20.07
2019-05-16T22:04:26.173Z,20.13
2019-05-16T22:06:59.233Z,20.90
2019-05-16T22:09:31.848Z,20.00
2019-05-16T22:12:06.749Z,21.10
2019-05-16T22:14:46.744Z,22.07
2019-05-16T22:17:19.784Z,23.17
2019-05-16T22:19:56.237Z,21.90
2019-05-16T22:22:29.979Z,23.87
2019-05-16T22:25:02.896Z,22.43
2019-05-16T22:27:36.040Z,24.33
2019-05-16T22:30:11.154Z,24.87
2019-05-16T22:32:44.083Z,24.03
2019-05-16T22:35:17.712Z,23.63
2019-05-16T22:37:55.535Z,25.17
2019-05-16T22:40:26.669Z,25.60
2019-05-16T22:42:59.357Z,26.13
2019-05-16T22:45:33.291Z,26.20
2019-05-16T22:48:06.984Z,26.57
2019-05-16T22:50:40.066Z,27.93
2019-05-16T22:53:12.801Z,23.83
2019-05-16T22:55:47.583Z,25.17
2019-05-16T22:58:20.144Z,27.10
2019-05-16T23:00:53.039Z,27.53
2019-05-16T23:03:26.729Z,29.80
2019-05-16T23:05:59.644Z,27.43
2019-05-16T23:08:36.395Z,29.10
2019-05-16T23:11:08.656Z,28.80
2019-05-16T23:13:41.241Z,28.30
2019-05-16T23:16:13.896Z,28.20
2019-05-16T23:18:46.735Z,29.17
2019-05-16T23:21:21.302Z,27.23
2019-05-16T23:23:54.074Z,30.43
2019-05-16T23:26:27.381Z,28.87
2019-05-16T23:29:00.240Z,26.93
2019-05-16T23:31:36.538Z,26.73
2019-05-16T23:34:10.584Z,27.40
2019-05-16T23:36:43.516Z,28.27
2019-05-16T23:39:16.265Z,29.33
2019-05-16T23:41:48.905Z,27.40
2019-05-16T23:44:22.862Z,27.07
2019-05-16T23:46:56.353Z,26.80
2019-05-16T23:49:32.369Z,28.37
2019-05-16T23:52:07.414Z,25.23
2019-05-16T23:54:39.877Z,24.27
2019-05-16T23:57:14.613Z,27.83
2019-05-16T23:59:47.429Z,26.37
